createdAt,value
2019-04-11T00:02:42.875Z,67.66
2019-04-11T00:07:46.729Z,67.75
2019-04-11T00:12:50.579Z,67.92
2019-04-11T00:17:54.390Z,68.36
2019-04-11T00:22:58.137Z,68.34
2019-04-11T00:28:01.611Z,68.66
2019-04-11T00:33:05.698Z,69.07
2019-04-11T00:38:09.836Z,69.36
2019-04-11T00:43:13.478Z,68.76
2019-04-11T00:48:17.599Z,68.74
2019-04-11T00:53:22.201Z,66.52
2019-04-11T00:58:25.786Z,66.39
2019-04-11T01:03:30.428Z,66.18
2019-04-11T01:08:35.697Z,65.42
2019-04-11T01:13:44.584Z,66.06
2019-04-11T01:18:44.533Z,64.87
2019-04-11T01:23:47.085Z,63.81
2019-04-11T01:28:51.990Z,63.24
2019-04-11T01:33:56.072Z,63.55
2019-04-11T01:39:01.073Z,63.84
2019-04-11T01:44:06.405Z,63.29
2019-04-11T01:49:20.029Z,63.44
2019-04-11T01:54:23.775Z,63.70
2019-04-11T01:59:27.114Z,63.10
2019-04-11T02:04:38.472Z,63.78
2019-04-11T02:09:41.731Z,63.46
2019-04-11T02:14:45.918Z,63.23
2019-04-11T02:19:50.272Z,64.21
2019-04-11T02:24:59.135Z,64.23
2019-04-11T02:30:03.983Z,64.07
2019-04-11T02:35:08.619Z,63.85
2019-04-11T02:40:13.537Z,64.42
2019-04-11T02:45:31.241Z,64.73
2019-04-11T02:50:24.190Z,64.44
2019-04-11T02:55:27.699Z,65.14
2019-04-11T03:00:33.634Z,64.66
2019-04-11T03:05:39.211Z,65.70
2019-04-11T03:10:45.290Z,65.78
2019-04-11T03:16:05.305Z,65.92
2019-04-11T03:20:57.711Z,65.85
2019-04-11T03:26:00.673Z,66.95
2019-04-11T03:31:42.282Z,66.78
2019-04-11T03:41:32.026Z,67.59
2019-04-11T03:46:37.652Z,66.47
2019-04-11T03:51:29.553Z,67.08
2019-04-11T03:56:33.156Z,67.18
2019-04-11T04:01:38.093Z,67.90
2019-04-11T04:06:41.469Z,68.50
2019-04-11T04:11:46.899Z,69.43
2019-04-11T04:17:28.659Z,69.87
2019-04-11T04:22:47.421Z,68.95
2019-04-11T04:27:51.335Z,69.81
2019-04-11T04:32:54.688Z,69.06
2019-04-11T04:37:59.267Z,68.92
2019-04-11T04:43:07.131Z,69.52
2019-04-11T04:48:12.470Z,67.66
2019-04-11T04:53:15.871Z,68.33
2019-04-11T04:58:20.764Z,68.75
2019-04-11T05:03:24.634Z,68.06
2019-04-11T05:08:30.556Z,67.59
2019-04-11T05:13:34.502Z,68.38
2019-04-11T05:18:40.153Z,68.59
2019-04-11T05:23:43.007Z,68.47
2019-04-11T05:28:46.363Z,68.69
2019-04-11T05:33:49.811Z,69.27
2019-04-11T05:38:53.088Z,70.88
2019-04-11T05:44:01.893Z,73.02
2019-04-11T05:49:09.548Z,73.15
2019-04-11T05:54:12.884Z,73.78
2019-04-11T05:59:20.397Z,73.41
2019-04-11T06:04:37.607Z,72.36
2019-04-11T06:09:42.372Z,72.04
2019-04-11T06:14:54.267Z,72.27
2019-04-11T06:20:25.824Z,72.04
2019-04-11T06:25:42.385Z,71.32
2019-04-11T06:31:14.252Z,71.59
2019-04-11T06:36:49.617Z,71.38
2019-04-11T06:42:15.457Z,69.16
2019-04-11T06:47:41.065Z,68.29
2019-04-11T06:52:45.365Z,68.12
2019-04-11T06:57:50.009Z,68.66
2019-04-11T07:02:57.054Z,68.07
2019-04-11T07:08:00.245Z,67.57
2019-04-11T07:13:20.900Z,67.72
2019-04-11T07:18:52.766Z,68.07
2019-04-11T07:24:14.731Z,66.61
2019-04-11T07:29:40.098Z,66.20
2019-04-11T07:35:21.572Z,65.35
2019-04-11T07:40:43.040Z,65.76
2019-04-11T07:46:06.845Z,66.03
2019-04-11T07:51:43.021Z,66.29
2019-04-11T07:56:52.941Z,66.95
2019-04-11T08:02:14.287Z,66.42
2019-04-11T08:07:36.541Z,66.02
2019-04-11T08:12:39.526Z,67.30
2019-04-11T08:17:44.616Z,66.92
2019-04-11T08:22:51.571Z,70.41
2019-04-11T08:28:01.352Z,72.27
2019-04-11T08:33:02.418Z,71.43
2019-04-11T08:38:07.940Z,70.83
2019-04-11T08:43:21.331Z,68.65
2019-04-11T08:48:24.673Z,66.63
2019-04-11T08:53:45.888Z,64.33
2019-04-11T08:59:41.813Z,64.76
2019-04-11T09:05:14.674Z,65.19
2019-04-11T09:10:32.093Z,64.54
2019-04-11T09:15:53.530Z,64.30
2019-04-11T09:21:16.047Z,63.29
2019-04-11T09:26:53.396Z,62.04
2019-04-11T09:32:15.971Z,58.88
2019-04-11T09:37:27.352Z,58.85
2019-04-11T09:42:47.026Z,56.16
2019-04-11T09:48:15.019Z,55.65
2019-04-11T09:53:16.511Z,55.39
2019-04-11T09:58:25.220Z,54.37
2019-04-11T10:03:29.290Z,54.04
2019-04-11T10:08:39.897Z,55.95
2019-04-11T10:13:55.401Z,54.08
2019-04-11T10:19:05.860Z,54.86
2019-04-11T10:24:32.645Z,57.69
2019-04-11T10:29:54.369Z,59.26
2019-04-11T10:35:24.079Z,58.92
2019-04-11T10:40:46.435Z,61.82
2019-04-11T10:46:09.192Z,62.31
2019-04-11T10:51:27.460Z,61.24
2019-04-11T10:56:39.602Z,61.04
2019-04-11T11:02:13.921Z,59.71
2019-04-11T11:07:20.404Z,56.52
2019-04-11T11:12:43.568Z,58.13
2019-04-11T11:18:34.965Z,57.31
2019-04-11T11:23:20.454Z,57.92
2019-04-11T11:28:25.876Z,57.02
2019-04-11T11:33:30.324Z,56.53
2019-04-11T11:38:33.746Z,56.51
2019-04-11T11:43:36.638Z,59.45
2019-04-11T11:48:48.768Z,59.08
2019-04-11T11:54:08.557Z,59.33
2019-04-11T11:59:34.480Z,59.63
2019-04-11T12:04:49.270Z,59.15
2019-04-11T12:10:13.231Z,59.70
2019-04-11T12:15:35.061Z,60.97
2019-04-11T12:20:44.798Z,60.57
2019-04-11T12:25:47.366Z,57.43
2019-04-11T12:30:57.953Z,58.13
2019-04-11T12:36:05.466Z,57.99
2019-04-11T12:41:32.130Z,56.37
2019-04-11T12:47:13.557Z,55.48
2019-04-11T12:52:29.868Z,58.67
2019-04-11T12:57:50.628Z,55.82
2019-04-11T13:03:13.163Z,57.08
2019-04-11T13:08:40.220Z,57.18
2019-04-11T13:14:12.325Z,57.11
2019-04-11T13:19:35.272Z,59.41
2019-04-11T13:24:55.722Z,60.21
2019-04-11T13:30:16.672Z,60.74
2019-04-11T13:35:37.652Z,58.84
2019-04-11T13:41:02.870Z,59.01
2019-04-11T13:46:26.730Z,58.78
2019-04-11T13:51:51.783Z,60.07
2019-04-11T13:57:13.543Z,58.65
2019-04-11T14:02:23.699Z,58.40
2019-04-11T14:07:26.537Z,58.49
2019-04-11T14:12:30.050Z,57.91
2019-04-11T14:17:51.264Z,55.64
2019-04-11T14:23:15.176Z,58.09
2019-04-11T14:28:19.226Z,56.31
2019-04-11T14:33:25.192Z,56.27
2019-04-11T14:38:27.771Z,56.27
2019-04-11T14:43:39.158Z,58.63
2019-04-11T14:48:43.897Z,60.70
2019-04-11T14:53:58.086Z,57.67
2019-04-11T14:59:24.764Z,57.97
2019-04-11T15:04:45.798Z,56.92
2019-04-11T15:09:56.855Z,54.83
2019-04-11T15:15:19.982Z,53.72
2019-04-11T15:20:55.890Z,48.99
2019-04-11T15:26:24.128Z,47.93
2019-04-11T15:31:42.669Z,51.36
2019-04-11T15:36:57.722Z,53.89
2019-04-11T15:42:03.139Z,54.17
2019-04-11T15:47:08.900Z,53.05
2019-04-11T15:52:17.528Z,55.52
2019-04-11T15:57:46.439Z,56.64
2019-04-11T16:02:56.725Z,56.83
2019-04-11T16:08:27.886Z,59.39
2019-04-11T16:13:50.136Z,58.89
2019-04-11T16:19:12.187Z,59.90
2019-04-11T16:24:22.547Z,59.47
2019-04-11T16:29:30.300Z,59.54
2019-04-11T16:34:48.534Z,59.34
2019-04-11T16:40:13.574Z,61.03
2019-04-11T16:45:34.487Z,60.57
2019-04-11T16:50:37.474Z,59.95
2019-04-11T16:55:43.216Z,61.00
2019-04-11T17:00:52.102Z,60.56
2019-04-11T17:05:58.334Z,60.55
2019-04-11T17:11:27.669Z,61.34
2019-04-11T17:16:31.137Z,62.34
2019-04-11T17:21:43.183Z,62.07
2019-04-11T17:26:40.827Z,62.57
2019-04-11T17:31:44.145Z,64.29
2019-04-11T17:36:48.301Z,67.62
2019-04-11T17:41:51.799Z,68.63
2019-04-11T17:46:56.798Z,72.51
2019-04-11T17:52:00.361Z,72.63
2019-04-11T17:57:04.104Z,72.62
2019-04-11T18:02:10.379Z,72.84
2019-04-11T18:07:16.992Z,72.99
2019-04-11T18:12:20.233Z,71.36
2019-04-11T18:17:23.533Z,71.25
2019-04-11T18:22:26.835Z,71.27
2019-04-11T18:27:29.403Z,70.67
2019-04-11T18:32:32.959Z,70.10
2019-04-11T18:37:36.562Z,69.90
2019-04-11T18:42:47.327Z,69.34
2019-04-11T18:47:52.418Z,69.24
2019-04-11T18:53:01.120Z,69.30
2019-04-11T18:58:06.902Z,70.03
2019-04-11T19:03:11.324Z,69.58
2019-04-11T19:08:23.088Z,69.56
2019-04-11T19:13:30.397Z,68.92
2019-04-11T19:18:34.632Z,68.74
2019-04-11T19:23:39.088Z,67.95
2019-04-11T19:28:45.244Z,67.77
2019-04-11T19:33:49.294Z,68.94
2019-04-11T19:38:53.102Z,69.86
2019-04-11T19:43:57.550Z,69.03
2019-04-11T19:49:02.044Z,68.90
2019-04-11T19:54:07.635Z,69.49
2019-04-11T19:59:11.382Z,69.68
2019-04-11T20:04:14.867Z,68.80
2019-04-11T20:09:19.054Z,68.26
2019-04-11T20:14:22.785Z,67.76
2019-04-11T20:19:27.478Z,67.59
2019-04-11T20:24:31.481Z,67.63
2019-04-11T20:29:35.155Z,67.74
2019-04-11T20:34:39.163Z,67.28
2019-04-11T20:39:46.480Z,67.65
2019-04-11T20:44:47.787Z,67.82
2019-04-11T20:49:51.141Z,66.06
2019-04-11T20:54:54.410Z,65.31
2019-04-11T20:59:57.687Z,64.73
2019-04-11T21:05:02.087Z,65.03
2019-04-11T21:10:05.757Z,65.55
2019-04-11T21:15:09.173Z,65.81
2019-04-11T21:20:12.717Z,64.86
2019-04-11T21:25:15.936Z,64.95
2019-04-11T21:30:19.119Z,64.27
2019-04-11T21:35:22.277Z,63.50
2019-04-11T21:40:25.550Z,63.63
2019-04-11T21:45:29.123Z,63.41
2019-04-11T21:50:32.478Z,62.97
2019-04-11T21:55:35.672Z,62.90
2019-04-11T22:00:43.370Z,62.78
2019-04-11T22:05:46.903Z,64.37
2019-04-11T22:10:50.671Z,63.55
2019-04-11T22:15:53.952Z,63.26
2019-04-11T22:20:57.171Z,63.37
2019-04-11T22:26:00.139Z,63.59
2019-04-11T22:31:03.059Z,62.62
2019-04-11T22:36:06.105Z,62.62
2019-04-11T22:41:10.052Z,62.30
2019-04-11T22:46:20.614Z,62.09
2019-04-11T22:51:19.061Z,61.90
2019-04-11T22:56:22.633Z,61.98
2019-04-11T23:01:25.892Z,62.14
2019-04-11T23:06:29.064Z,61.60
2019-04-11T23:11:32.836Z,61.33
2019-04-11T23:16:35.640Z,62.12
2019-04-11T23:21:39.166Z,63.00
2019-04-11T23:26:42.632Z,62.52
2019-04-11T23:31:45.692Z,62.57
2019-04-11T23:36:50.843Z,62.87
2019-04-11T23:41:53.735Z,62.85
2019-04-11T23:46:56.870Z,63.10
2019-04-11T23:52:00.053Z,63.18
2019-04-11T23:57:02.966Z,63.12
